LEMOGMMB

Guest
Details From LEMO - MORON AB
To GMMB - BEN SLIMANE
Flight Number -
Tags generated
Created
Modified
Stats Distance 227 nm / 420 km
Max Altitude 28,800 ft / 8,778 m
Waypoints 4
Social Downloads 0
Likes 0
Share VATSIM

Download

Looking for another format? Having issues loading an existing format? Contact us
Advertisement - Login to hide

Notes

Basic altitude profile: - Ascent Rate: 1500ft/min - Ascent Speed: 250kts - Cruise Altitude: 40000ft - Cruise Speed: 420kts - Descent Rate: 1000ft/min - Descent Speed: 250kts Options: - Use NATs: yes - Use PACOTS: yes - Use low airways: yes - Use high airways: yes

Route

LEMO VAGNO G5 TOLSI GMMB

ID Type Via Altitude Latitude Longitude Leg Dist Tot Dist Heading (true) Name
O LEMO APT - 0 ft / 0 m 37.17489˚ -5.61602˚ - 0 nm - MORON AB
VAGNO FIX - 28,800 ft / 8,778 m 35.74000˚ -6.30000˚ 92 nm 92 nm 201° / 201° -
TOLSI FIX G5 (AWY-LO) 12,300 ft / 3,749 m 34.60056˚ -7.01500˚ 76 nm 169 nm 207° / 207° -
O GMMB APT - 0 ft / 0 m 33.65542˚ -7.22145˚ 57 nm 226 nm 190° / 190° BEN SLIMANE

Altitude Profile

Advertisement - Login to hide

Weather


0- 5 10 15 20 25 30 35+ Temperature / ° C

Clouds and Precipitation
Forecast for 2017-12-13 06:00 UTC. Updated an hour ago

Ground ~20,000 ft ~40,000 ft Winds

LEMO

Details ICAO LEMO (OZP)
Name MORON AB
Region Spain
Timezone Europe/Madrid (UTC+1.0)
Stats Elevation 285 ft / 87 m (AMSL)
Location 37.174890° -5.616018°
Runways 1
Magnetic Variation 1.210° W

METAR

LEMO 130400Z 04006KT CAVOK 02/01 Q1026 NOSIG

Decode

TAF

Not found

Departure Runways

ID Width Length Bearing (true) Bearing (mag) Surface Threshold Offset Overrun Length
02 200 ft / 61 m 11,820 ft / 3,603 m 19.75° 20.96° Asphalt 0 ft / 0 m 1,000 ft / 305 m
20 200 ft / 61 m 11,820 ft / 3,603 m 199.76° 200.97° Asphalt 0 ft / 0 m 1,000 ft / 305 m

GMMB

Details ICAO GMMB
Name BEN SLIMANE
Region Morocco
Timezone Africa/Casablanca (UTC+0.0)
Stats Elevation 627 ft / 191 m (AMSL)
Location 33.655423° -7.221449°
Runways 1
Magnetic Variation 1.699° W

METAR

GMMB 130400Z AUTO 11004KT //// ////// 05/05 Q1024 NOSIG

Decode

TAF

Not found

Destination Runways

ID Width Length Bearing (true) Bearing (mag) Surface Threshold Offset Overrun Length
14 150 ft / 46 m 10,096 ft / 3,077 m 141.46° 143.16° Asphalt 0 ft / 0 m 249 ft / 76 m
32 150 ft / 46 m 10,096 ft / 3,077 m 321.47° 323.17° Asphalt 0 ft / 0 m 249 ft / 76 m